Elkins Park, PA (19027)

1:18 PM EDT on September 29, 2016 (GMT -0400)
South Kensington East | | Change Station

Elev 30 ft 39.98 °N, 75.14 °W | Updated 29 seconds ago

Light Rain
Light Rain
62.5 °F
Feels Like 62.5 °F
N
9.0
Wind Variable Wind from ENE

Today
High -- | Low -- °F
--% Chance of Precip.
Yesterday
High -- | Low -- °F
Precip. -- in
Pressure 30.29 in
Visibility 8.0 miles
Clouds Overcast 1100 ft
Dew Point 59 °F
Humidity 91%
Rainfall 0.20 in
Snow Depth Not available.
6:55 AM 6:45 PM
Waning Crescent, 2% visible
METAR KPHL 291654Z 08019G25KT 8SM -RA OVC011 18/16 A3029 RMK AO2 PK WND 08028/1603 RAB35 SLP255 P0000 T01780161 $
Pressure 30.29 in
Visibility 8.0 miles
Clouds Overcast 1100 ft
Dew Point 59 °F
Humidity 91%
Rainfall 0.20 in
Snow Depth Not available.
6:55 AM 6:45 PM
Waning Crescent, 2% visible
METAR KPHL 291654Z 08019G25KT 8SM -RA OVC011 18/16 A3029 RMK AO2 PK WND 08028/1603 RAB35 SLP255 P0000 T01780161 $

10-Day Weather Forecast

Almanac

Astronomy

Sep. 29, 2016 Rise Set
Actual Time
Civil Twilight
Nautical Twilight
Astronomical Twilight
Moon
Length of Visible Light
Length of Day
Tomorrow will be .
, % of the Moon is Illuminated

Today's Extremes

State Highs State Lows

Community

WunderPhotos

Upload Photos

1,942,522 photos uploaded!

WunderBlog® & News

Nearby

Air Quality

  Air Quality AQ Index Pollutant
Not available.

Snow Depth

Station Depth Elevation

Earthquake Activity

City Distance Mag. Time & Date
Minimum magnitude displayed is 2.5.

Coastal Water Temperatures

Place Temperature

Stations

Nearby Weather Stations

Station Location Temp. Windchill Dew Point Humidity Wind Precip. Elev Updated Type
                   

Watches & Warnings

There are currently no watches in effect.